96D

Walhalla Municipal Airport

Walhalla, North Dakota, USA
METAR K96D 151855Z AUTO 33007KT 10SM M17/M21 A3021 RMK AO2
Observed Flight Rules
Feb-15 @ 18:55 UTC (11 minutes ago)
Wind Visibility
330° at 7 knots 10 miles
Temperatures Readings
Current -17°C / 1°F
Dewpoint -21°C / -6°F
Humidity 71%
Altimeter 30.21" Hg
Pressure 1023.02 hPa
Elevation 290
METAR K96D 151855Z AUTO 33007KT 10SM M17/M21 A3021 RMK AO2
Observed Flight Rules
Feb-15 @ 18:55 UTC
(11 minutes ago)
Wind Visibility
330° at 7 knots 10 miles
Temperature Dewpoint
-17°C / 1°F -21°C / -6°F
Humidity Altimeter Pressure
71% 30.21" Hg 1023.02 hPa